createdAt,value
2023-04-19T00:00:58.559Z,0.00
2023-04-19T00:01:58.556Z,0.00
2023-04-19T00:02:58.844Z,0.00
2023-04-19T00:03:58.663Z,0.00
2023-04-19T00:04:58.611Z,0.00
2023-04-19T00:05:58.667Z,0.00
2023-04-19T00:06:58.625Z,0.00
2023-04-19T00:07:58.448Z,0.00
2023-04-19T00:08:58.504Z,0.00
2023-04-19T00:09:58.665Z,0.00
2023-04-19T00:10:58.457Z,0.00
2023-04-19T00:11:58.425Z,0.00
2023-04-19T00:12:58.412Z,0.00
2023-04-19T00:13:58.359Z,0.00
2023-04-19T00:14:58.386Z,0.00
2023-04-19T00:15:58.376Z,0.00
2023-04-19T00:16:58.512Z,0.00
2023-04-19T00:17:58.446Z,0.00
2023-04-19T00:18:58.362Z,0.00
2023-04-19T00:19:58.334Z,0.00
2023-04-19T00:20:58.331Z,0.00
2023-04-19T00:21:58.372Z,0.00
2023-04-19T00:22:58.360Z,0.00
2023-04-19T00:23:58.307Z,0.00
2023-04-19T00:24:58.265Z,0.00
2023-04-19T00:25:58.314Z,0.00
2023-04-19T00:26:58.266Z,0.00
2023-04-19T00:27:58.280Z,0.00
2023-04-19T00:28:58.259Z,0.00
2023-04-19T00:29:58.270Z,0.00
2023-04-19T00:30:58.357Z,0.00
2023-04-19T00:31:58.270Z,0.00
2023-04-19T00:32:58.316Z,0.00
2023-04-19T00:33:58.209Z,0.00
2023-04-19T00:34:58.178Z,0.00
2023-04-19T00:35:58.163Z,0.00
2023-04-19T00:36:58.180Z,0.00
2023-04-19T00:37:58.229Z,0.00
2023-04-19T00:38:58.220Z,0.00
2023-04-19T00:39:58.183Z,0.00
2023-04-19T00:40:58.224Z,0.00
2023-04-19T00:41:58.209Z,0.00
2023-04-19T00:42:58.211Z,0.00
2023-04-19T00:43:58.143Z,0.00
2023-04-19T00:44:58.862Z,0.00
2023-04-19T00:45:58.119Z,0.00
2023-04-19T00:46:58.155Z,0.00
2023-04-19T00:47:58.077Z,0.00
2023-04-19T00:48:58.061Z,0.00
2023-04-19T00:49:58.946Z,0.00
2023-04-19T00:50:58.053Z,0.00
2023-04-19T00:51:58.041Z,0.00
2023-04-19T00:52:58.006Z,0.00
2023-04-19T00:53:58.150Z,0.00
2023-04-19T00:54:57.992Z,0.00
2023-04-19T00:55:58.000Z,0.00
2023-04-19T00:56:57.987Z,0.00
2023-04-19T00:57:57.945Z,0.00
2023-04-19T00:58:58.011Z,0.00
2023-04-19T00:59:57.921Z,0.00
2023-04-19T01:00:58.843Z,0.00
2023-04-19T01:01:58.022Z,0.00
2023-04-19T01:02:57.989Z,0.00
2023-04-19T01:03:57.919Z,0.00
2023-04-19T01:04:57.898Z,0.00
2023-04-19T01:05:57.875Z,0.00
2023-04-19T01:06:57.886Z,0.00
2023-04-19T01:07:57.980Z,0.00
2023-04-19T01:08:57.849Z,0.00
2023-04-19T01:09:57.791Z,0.00
2023-04-19T01:10:57.899Z,0.00
2023-04-19T01:11:57.798Z,0.00
2023-04-19T01:12:57.958Z,0.00
2023-04-19T01:13:57.779Z,0.00
2023-04-19T01:14:57.787Z,0.00
2023-04-19T01:15:57.817Z,0.00
2023-04-19T01:16:57.776Z,0.00
2023-04-19T01:17:57.834Z,0.00
2023-04-19T01:18:57.876Z,0.00
2023-04-19T01:19:57.695Z,0.00
2023-04-19T01:20:57.758Z,0.00
2023-04-19T01:21:57.708Z,0.00
2023-04-19T01:22:57.913Z,0.00
2023-04-19T01:23:57.761Z,0.00
2023-04-19T01:24:57.688Z,0.00
2023-04-19T01:25:57.652Z,0.00
2023-04-19T01:26:57.768Z,0.00
2023-04-19T01:27:57.666Z,0.00
2023-04-19T01:28:57.676Z,0.00
2023-04-19T01:29:57.655Z,0.00
2023-04-19T01:30:57.693Z,0.00
2023-04-19T01:31:57.698Z,0.00
2023-04-19T01:32:57.680Z,0.00
2023-04-19T01:33:57.627Z,0.00
2023-04-19T01:34:57.654Z,0.00
2023-04-19T01:35:57.667Z,0.00
2023-04-19T01:36:57.554Z,0.00
2023-04-19T01:37:58.358Z,0.00
2023-04-19T01:38:57.571Z,0.00
2023-04-19T01:39:57.605Z,0.00
2023-04-19T01:40:57.519Z,0.00
2023-04-19T01:41:57.487Z,0.00
2023-04-19T01:42:57.661Z,0.00
2023-04-19T01:43:57.484Z,0.00
2023-04-19T01:44:57.520Z,0.00
2023-04-19T01:45:57.445Z,0.00
2023-04-19T01:46:57.541Z,0.00
2023-04-19T01:47:57.559Z,0.00
2023-04-19T01:48:57.487Z,0.00
2023-04-19T01:49:58.020Z,0.00
2023-04-19T01:50:57.455Z,0.00
2023-04-19T01:51:57.451Z,0.00
2023-04-19T01:52:57.475Z,0.00
2023-04-19T01:53:57.397Z,0.00
2023-04-19T01:54:57.409Z,0.00
2023-04-19T01:55:57.376Z,0.00
2023-04-19T01:56:57.350Z,0.00
2023-04-19T01:57:57.440Z,0.00
2023-04-19T01:58:58.348Z,0.00
2023-04-19T01:59:57.419Z,0.00
2023-04-19T02:00:57.388Z,0.00
2023-04-19T02:01:57.425Z,0.00
2023-04-19T02:02:57.443Z,0.00
2023-04-19T02:03:57.358Z,0.00
2023-04-19T02:04:57.307Z,0.00
2023-04-19T02:05:57.307Z,0.00
2023-04-19T02:06:57.255Z,0.00
2023-04-19T02:07:57.380Z,0.00
2023-04-19T02:08:57.283Z,0.00
2023-04-19T02:09:57.302Z,0.00
2023-04-19T02:10:58.015Z,0.00
2023-04-19T02:11:57.187Z,0.00
2023-04-19T02:12:57.268Z,0.00
2023-04-19T02:13:57.170Z,0.00
2023-04-19T02:15:11.350Z,0.00
2023-04-19T02:15:57.208Z,0.00
2023-04-19T02:16:57.262Z,0.00
2023-04-19T02:17:57.237Z,0.00
2023-04-19T02:18:57.138Z,0.00
2023-04-19T02:19:57.203Z,0.00
2023-04-19T02:20:57.176Z,0.00
2023-04-19T02:21:57.129Z,0.00
2023-04-19T02:22:57.120Z,0.00
2023-04-19T02:23:57.130Z,0.00
2023-04-19T02:24:57.079Z,0.00
2023-04-19T02:25:57.081Z,0.00
2023-04-19T02:26:57.113Z,0.00
2023-04-19T02:27:57.045Z,0.00
2023-04-19T02:28:57.026Z,0.00
2023-04-19T02:29:57.111Z,0.00
2023-04-19T02:30:57.042Z,0.00
2023-04-19T02:31:57.120Z,0.00
2023-04-19T02:32:57.049Z,0.00
2023-04-19T02:33:57.105Z,0.00
2023-04-19T02:34:57.021Z,0.00
2023-04-19T02:35:57.043Z,0.00
2023-04-19T02:36:57.049Z,0.00
2023-04-19T02:37:57.000Z,0.00
2023-04-19T02:38:56.925Z,0.00
2023-04-19T02:39:56.898Z,0.00
2023-04-19T02:40:57.018Z,0.00
2023-04-19T02:41:56.916Z,0.00
2023-04-19T02:42:56.956Z,0.00
2023-04-19T02:43:56.885Z,0.00
2023-04-19T02:44:56.831Z,0.00
2023-04-19T02:45:57.002Z,0.00
2023-04-19T02:46:56.903Z,0.00
2023-04-19T02:47:57.793Z,0.00
2023-04-19T02:48:56.894Z,0.00
2023-04-19T02:49:56.935Z,0.00
2023-04-19T02:50:56.875Z,0.00
2023-04-19T02:51:57.037Z,0.00
2023-04-19T02:52:56.829Z,0.00
2023-04-19T02:53:56.796Z,0.00
2023-04-19T02:54:57.448Z,0.00
2023-04-19T02:55:56.770Z,0.00
2023-04-19T02:57:07.010Z,0.00
2023-04-19T02:57:56.755Z,0.00
2023-04-19T02:58:56.849Z,0.00
2023-04-19T02:59:57.711Z,0.00
2023-04-19T03:00:56.775Z,0.00
2023-04-19T03:01:56.806Z,0.00
2023-04-19T03:02:56.945Z,0.00
2023-04-19T03:03:56.856Z,0.00
2023-04-19T03:04:56.699Z,0.00
2023-04-19T03:05:56.732Z,0.00
2023-04-19T03:06:56.725Z,0.00
2023-04-19T03:07:56.775Z,0.00
2023-04-19T03:08:56.646Z,0.00
2023-04-19T03:09:56.626Z,0.00
2023-04-19T03:10:57.507Z,0.00
2023-04-19T03:11:56.631Z,0.00
2023-04-19T03:12:56.785Z,0.00
2023-04-19T03:13:56.570Z,0.00
2023-04-19T03:14:56.608Z,0.00
2023-04-19T03:15:56.604Z,0.00
2023-04-19T03:16:56.724Z,0.00
2023-04-19T03:17:57.253Z,0.00
2023-04-19T03:18:56.603Z,0.00
2023-04-19T03:19:56.593Z,0.00
2023-04-19T03:20:56.595Z,0.00
2023-04-19T03:21:56.773Z,0.00
2023-04-19T03:22:56.514Z,0.00
2023-04-19T03:23:56.554Z,0.00
2023-04-19T03:24:56.560Z,0.00
2023-04-19T03:25:56.482Z,0.00
2023-04-19T03:26:56.510Z,0.00
2023-04-19T03:27:56.563Z,0.00
2023-04-19T03:28:56.686Z,0.00
2023-04-19T03:29:56.478Z,0.00
2023-04-19T03:30:56.489Z,0.00
2023-04-19T03:31:57.361Z,0.00
2023-04-19T03:32:56.502Z,0.00
2023-04-19T03:33:56.428Z,0.00
2023-04-19T03:34:56.369Z,0.00
2023-04-19T03:35:56.458Z,0.00
2023-04-19T03:36:56.503Z,0.00
2023-04-19T03:37:56.393Z,0.00
2023-04-19T03:38:57.312Z,0.00
2023-04-19T03:39:56.332Z,0.00
2023-04-19T03:40:57.692Z,0.00
2023-04-19T03:41:56.378Z,0.00
2023-04-19T03:42:58.825Z,0.00
2023-04-19T03:43:56.268Z,0.00
2023-04-19T03:44:56.456Z,0.00
2023-04-19T03:45:56.289Z,0.00
2023-04-19T03:46:56.430Z,0.00
2023-04-19T03:47:57.038Z,0.00
2023-04-19T03:48:56.272Z,0.00
2023-04-19T03:49:56.252Z,0.00
2023-04-19T03:50:56.302Z,0.00
2023-04-19T03:51:56.259Z,0.00
2023-04-19T03:52:56.994Z,0.00
2023-04-19T03:53:56.194Z,0.00
2023-04-19T03:54:56.194Z,0.00
2023-04-19T03:55:56.213Z,0.00
2023-04-19T03:56:56.466Z,0.00
2023-04-19T03:57:56.415Z,4.00
2023-04-19T03:58:56.128Z,4.00
2023-04-19T03:59:56.144Z,0.00
2023-04-19T04:00:56.116Z,4.00
2023-04-19T04:01:56.173Z,4.00
2023-04-19T04:02:56.377Z,4.00
2023-04-19T04:03:56.324Z,4.00
2023-04-19T04:04:56.168Z,4.00
2023-04-19T04:05:56.147Z,4.00
2023-04-19T04:07:39.368Z,4.00
2023-04-19T04:07:56.070Z,8.00
2023-04-19T04:08:56.153Z,8.00
2023-04-19T04:09:56.110Z,8.00
2023-04-19T04:10:56.051Z,8.00
2023-04-19T04:11:56.025Z,12.00
2023-04-19T04:12:56.326Z,12.00
2023-04-19T04:13:56.036Z,16.00
2023-04-19T04:14:55.998Z,16.00
2023-04-19T04:15:56.543Z,20.00
2023-04-19T04:16:56.039Z,24.00
2023-04-19T04:17:56.082Z,28.00
2023-04-19T04:18:56.014Z,28.00
2023-04-19T04:19:59.005Z,36.00
2023-04-19T04:20:55.997Z,40.00
2023-04-19T04:21:56.140Z,48.00
2023-04-19T04:22:56.112Z,52.00
2023-04-19T04:23:55.880Z,56.00
2023-04-19T04:24:56.448Z,56.00
2023-04-19T04:25:55.920Z,60.00
2023-04-19T04:26:55.916Z,64.00
2023-04-19T04:27:55.871Z,72.00
2023-04-19T04:28:55.888Z,80.00
2023-04-19T04:29:55.884Z,92.00
2023-04-19T04:30:55.965Z,104.00
2023-04-19T04:31:56.016Z,120.00
2023-04-19T04:32:59.148Z,132.00
2023-04-19T04:33:55.864Z,144.00
2023-04-19T04:34:55.796Z,156.00
2023-04-19T04:35:55.825Z,168.00
2023-04-19T04:36:55.838Z,184.00
2023-04-19T04:37:56.213Z,196.00
2023-04-19T04:38:55.845Z,212.00
2023-04-19T04:39:56.074Z,232.00
2023-04-19T04:40:57.069Z,248.00
2023-04-19T04:41:55.751Z,264.00
2023-04-19T04:42:55.783Z,280.00
2023-04-19T04:44:10.799Z,300.00
2023-04-19T04:44:57.741Z,312.00
2023-04-19T04:46:02.074Z,328.00
2023-04-19T04:46:55.735Z,340.00
2023-04-19T04:47:55.775Z,364.00
2023-04-19T04:53:59.457Z,476.00
2023-04-19T04:55:00.732Z,488.00
2023-04-19T04:56:00.628Z,508.00
2023-04-19T04:57:00.677Z,524.00
2023-04-19T04:58:00.912Z,536.00
2023-04-19T04:59:00.585Z,548.00
2023-04-19T05:00:00.703Z,564.00
2023-04-19T05:01:00.791Z,576.00
2023-04-19T05:02:00.676Z,592.00
2023-04-19T05:03:00.669Z,608.00
2023-04-19T05:04:00.663Z,624.00
2023-04-19T05:05:00.511Z,644.00
2023-04-19T05:06:02.514Z,656.00
2023-04-19T05:07:00.769Z,672.00
2023-04-19T05:08:00.512Z,684.00
2023-04-19T05:09:00.580Z,692.00
2023-04-19T05:10:04.086Z,704.00
2023-04-19T05:11:00.536Z,720.00
2023-04-19T05:12:01.422Z,740.00
2023-04-19T05:13:01.324Z,776.00
2023-04-19T05:14:01.452Z,812.00
2023-04-19T05:15:02.834Z,844.00
2023-04-19T05:16:01.060Z,880.00
2023-04-19T05:17:00.721Z,916.00
2023-04-19T05:18:01.153Z,952.00
2023-04-19T05:19:03.540Z,992.00
2023-04-19T05:20:00.367Z,1024.00
2023-04-19T05:21:01.198Z,1072.00
2023-04-19T05:22:00.485Z,1120.00
2023-04-19T05:23:00.554Z,1168.00
2023-04-19T05:24:00.328Z,1228.00
2023-04-19T05:25:01.901Z,1280.00
2023-04-19T05:26:00.348Z,1328.00
2023-04-19T05:27:02.821Z,1372.00
2023-04-19T05:28:01.585Z,1408.00
2023-04-19T05:29:01.308Z,1440.00
2023-04-19T05:30:00.428Z,1472.00
2023-04-19T05:31:00.328Z,1496.00
2023-04-19T05:32:06.161Z,1524.00
2023-04-19T05:33:00.479Z,1548.00
2023-04-19T05:34:00.235Z,1576.00
2023-04-19T05:35:00.359Z,1604.00
2023-04-19T05:36:00.243Z,1628.00
2023-04-19T05:37:00.263Z,1656.00
2023-04-19T05:38:00.404Z,1676.00
2023-04-19T05:39:00.407Z,1708.00
2023-04-19T05:40:00.477Z,1752.00
2023-04-19T05:41:02.906Z,1740.00
2023-04-19T05:42:04.663Z,1756.00
2023-04-19T05:43:00.205Z,1756.00
2023-04-19T05:44:00.220Z,1768.00
2023-04-19T05:45:00.125Z,1780.00
2023-04-19T05:46:21.334Z,1780.00
2023-04-19T05:47:05.561Z,1784.00
2023-04-19T05:48:00.246Z,1784.00
2023-04-19T05:49:07.188Z,1788.00
2023-04-19T05:50:00.168Z,1804.00
2023-04-19T05:51:00.542Z,1828.00
2023-04-19T05:52:01.744Z,1856.00
2023-04-19T05:53:00.146Z,1888.00
2023-04-19T05:54:00.223Z,1884.00
2023-04-19T05:55:00.074Z,1912.00
2023-04-19T05:56:02.307Z,1924.00
2023-04-19T05:57:00.226Z,1936.00
2023-04-19T05:58:00.313Z,1952.00
2023-04-19T05:59:00.008Z,1972.00
2023-04-19T06:01:00.155Z,2016.00
2023-04-19T06:02:03.606Z,2036.00
2023-04-19T06:03:01.413Z,2044.00
2023-04-19T06:04:00.628Z,2068.00
2023-04-19T06:05:07.955Z,2100.00
2023-04-19T06:06:02.106Z,2152.00
2023-04-19T06:07:02.070Z,2216.00
2023-04-19T06:08:02.775Z,2288.00
2023-04-19T06:09:02.078Z,2336.00
2023-04-19T06:10:00.793Z,2380.00
2023-04-19T06:11:05.131Z,2412.00
2023-04-19T06:12:02.025Z,2416.00
2023-04-19T06:13:00.512Z,2428.00
2023-04-19T06:14:01.770Z,2456.00
2023-04-19T06:14:59.909Z,2476.00
2023-04-19T06:16:04.954Z,2504.00
2023-04-19T06:16:59.926Z,2556.00
2023-04-19T06:18:01.414Z,2588.00
2023-04-19T06:32:39.255Z,3408.00
2023-04-19T06:33:39.021Z,3304.00
2023-04-19T06:34:39.113Z,3264.00
2023-04-19T06:35:40.283Z,3336.00
2023-04-19T06:36:40.105Z,3540.00
2023-04-19T06:37:40.130Z,3588.00
2023-04-19T06:38:40.520Z,3620.00
2023-04-19T06:39:40.183Z,3712.00
2023-04-19T06:40:40.078Z,3740.00
2023-04-19T06:41:40.083Z,3700.00
2023-04-19T06:42:40.085Z,3732.00
2023-04-19T06:43:40.239Z,3836.00
2023-04-19T06:44:40.061Z,3816.00
2023-04-19T06:45:40.751Z,3744.00
2023-04-19T06:46:40.034Z,3912.00
2023-04-19T06:47:40.193Z,3892.00
2023-04-19T06:48:40.811Z,3844.00
2023-04-19T06:49:40.085Z,3756.00
2023-04-19T06:50:40.003Z,3864.00
2023-04-19T06:51:40.040Z,3888.00
2023-04-19T06:52:40.261Z,3876.00
2023-04-19T06:53:40.045Z,3872.00
2023-04-19T06:54:40.115Z,3896.00
2023-04-19T06:55:39.980Z,3924.00
2023-04-19T06:56:42.086Z,3908.00
2023-04-19T06:59:47.877Z,3968.00
2023-04-19T07:00:48.335Z,3992.00
2023-04-19T07:01:48.047Z,3976.00
2023-04-19T07:02:48.010Z,3952.00
2023-04-19T07:03:48.050Z,4000.00
2023-04-19T07:04:49.588Z,3992.00
2023-04-19T07:06:00.107Z,3996.00
2023-04-19T07:06:54.657Z,4052.00
2023-04-19T07:07:52.007Z,4076.00
2023-04-19T07:08:50.493Z,4044.00
2023-04-19T07:09:49.938Z,4040.00
2023-04-19T07:10:48.981Z,4036.00
2023-04-19T07:11:49.199Z,4016.00
2023-04-19T07:12:48.985Z,4024.00
2023-04-19T07:13:49.333Z,3880.00
2023-04-19T07:14:51.464Z,3840.00
2023-04-19T07:15:49.076Z,3920.00
2023-04-19T07:16:50.195Z,3992.00
2023-04-19T07:17:48.991Z,4040.00
2023-04-19T07:18:49.187Z,4028.00
2023-04-19T07:19:49.015Z,4004.00
2023-04-19T07:20:49.029Z,4084.00
2023-04-19T07:21:49.016Z,4024.00
2023-04-19T07:22:48.972Z,4032.00
2023-04-19T07:23:48.862Z,4076.00
2023-04-19T07:24:49.020Z,4072.00
2023-04-19T07:25:48.821Z,4212.00
2023-04-19T07:26:49.348Z,4324.00
2023-04-19T07:27:48.811Z,4384.00
2023-04-19T07:28:48.932Z,4372.00
2023-04-19T07:29:48.794Z,4336.00
2023-04-19T07:30:48.884Z,4416.00
2023-04-19T07:31:48.889Z,4476.00
2023-04-19T07:32:49.219Z,4388.00
2023-04-19T07:33:48.899Z,4416.00
2023-04-19T07:34:48.886Z,4500.00
2023-04-19T07:35:48.987Z,4472.00
2023-04-19T07:36:49.617Z,4408.00
2023-04-19T07:37:48.683Z,4400.00
2023-04-19T07:38:48.732Z,4568.00
2023-04-19T07:39:48.776Z,4640.00
2023-04-19T07:40:49.151Z,4680.00
2023-04-19T07:41:48.804Z,4724.00
2023-04-19T07:42:48.722Z,4692.00
2023-04-19T07:43:48.642Z,4692.00
2023-04-19T07:44:48.636Z,4716.00
2023-04-19T07:45:48.631Z,4716.00
2023-04-19T07:46:48.680Z,4868.00
2023-04-19T07:47:48.997Z,4840.00
2023-04-19T07:48:48.586Z,4912.00
2023-04-19T07:49:48.590Z,4948.00
2023-04-19T07:50:48.578Z,4920.00
2023-04-19T07:51:48.489Z,4996.00
2023-04-19T07:52:48.748Z,4956.00
2023-04-19T07:53:48.638Z,4932.00
2023-04-19T07:54:48.520Z,4780.00
2023-04-19T07:55:48.570Z,4924.00
2023-04-19T07:56:48.743Z,4952.00
2023-04-19T07:57:48.507Z,5044.00
2023-04-19T07:58:56.497Z,5040.00
2023-04-19T07:59:49.822Z,5108.00
2023-04-19T08:00:48.665Z,5172.00
2023-04-19T08:01:48.766Z,5080.00
2023-04-19T08:02:51.100Z,4912.00
2023-04-19T08:03:49.619Z,4844.00
2023-04-19T08:04:48.948Z,4916.00
2023-04-19T08:05:48.604Z,5016.00
2023-04-19T08:06:48.531Z,4988.00
2023-04-19T08:07:48.348Z,4968.00
2023-04-19T08:08:49.775Z,4732.00
2023-04-19T08:09:48.722Z,4884.00
2023-04-19T08:10:48.670Z,4900.00
2023-04-19T08:11:48.306Z,4916.00
2023-04-19T08:13:03.545Z,4860.00
2023-04-19T08:14:02.849Z,4888.00
2023-04-19T08:14:59.942Z,4804.00
2023-04-19T08:16:27.113Z,4924.00
2023-04-19T08:17:14.453Z,5044.00
2023-04-19T08:17:50.675Z,4992.00
2023-04-19T08:18:48.461Z,5076.00
2023-04-19T08:19:48.461Z,5120.00
2023-04-19T08:20:48.318Z,5180.00
2023-04-19T08:21:48.255Z,5164.00
2023-04-19T08:22:48.325Z,5192.00
2023-04-19T08:23:48.993Z,5232.00
2023-04-19T08:24:49.280Z,5372.00
2023-04-19T08:25:48.399Z,5436.00
2023-04-19T08:26:48.937Z,5280.00
2023-04-19T08:27:48.375Z,4980.00
2023-04-19T08:28:48.202Z,4848.00
2023-04-19T08:29:48.291Z,4940.00
2023-04-19T08:30:48.476Z,5388.00
2023-04-19T08:31:48.152Z,5412.00
2023-04-19T08:32:48.136Z,5448.00
2023-04-19T08:33:48.079Z,5456.00
2023-04-19T08:34:48.112Z,5392.00
2023-04-19T08:35:48.267Z,5332.00
2023-04-19T08:36:55.947Z,5328.00
2023-04-19T08:37:50.566Z,5356.00
2023-04-19T08:38:54.973Z,5392.00
2023-04-19T08:39:49.133Z,5416.00
2023-04-19T08:40:48.093Z,5428.00
2023-04-19T08:41:52.865Z,5368.00
2023-04-19T08:42:50.090Z,5380.00
2023-04-19T08:43:48.058Z,5356.00
2023-04-19T08:45:06.359Z,5348.00
2023-04-19T08:45:50.022Z,5304.00
2023-04-19T08:46:48.035Z,5300.00
2023-04-19T08:47:59.723Z,5268.00
2023-04-19T08:48:50.958Z,5240.00
2023-04-19T08:49:51.205Z,5200.00
2023-04-19T08:51:01.235Z,5168.00
2023-04-19T08:51:48.923Z,5124.00
2023-04-19T08:52:55.899Z,5096.00
2023-04-19T08:53:49.904Z,5060.00
2023-04-19T08:54:47.897Z,5036.00
2023-04-19T08:56:03.383Z,5012.00
2023-04-19T08:56:49.945Z,4988.00
2023-04-19T08:57:47.822Z,4980.00
2023-04-19T08:59:48.822Z,5004.00
2023-04-19T09:00:47.796Z,4988.00
2023-04-19T09:01:47.975Z,4924.00
2023-04-19T09:02:48.450Z,4916.00
2023-04-19T09:04:02.623Z,4904.00
2023-04-19T09:04:50.074Z,4884.00
2023-04-19T09:05:48.899Z,4872.00
2023-04-19T09:06:47.819Z,4868.00
2023-04-19T09:07:47.774Z,4868.00
2023-04-19T09:08:48.147Z,4872.00
2023-04-19T09:10:02.105Z,4860.00
2023-04-19T09:10:49.785Z,4860.00
2023-04-19T09:11:47.832Z,4848.00
2023-04-19T09:12:48.315Z,4840.00
2023-04-19T09:13:47.801Z,4840.00
2023-04-19T09:15:00.564Z,4840.00
2023-04-19T09:15:49.745Z,4828.00
2023-04-19T09:16:48.538Z,4824.00
2023-04-19T09:17:48.028Z,4812.00
2023-04-19T09:18:59.951Z,4812.00
2023-04-19T09:19:50.262Z,4804.00
2023-04-19T09:20:47.657Z,4796.00
2023-04-19T09:21:47.675Z,4792.00
2023-04-19T09:22:47.735Z,4796.00
2023-04-19T09:23:47.639Z,4800.00
2023-04-19T09:26:48.651Z,4796.00
2023-04-19T09:27:47.610Z,4800.00
2023-04-19T09:28:47.614Z,4816.00
2023-04-19T09:29:47.580Z,4804.00
2023-04-19T09:30:59.972Z,4812.00
2023-04-19T09:31:51.873Z,4820.00
2023-04-19T09:32:49.073Z,4824.00
2023-04-19T09:33:47.609Z,4820.00
2023-04-19T09:34:47.660Z,4828.00
2023-04-19T09:35:48.302Z,4836.00
2023-04-19T09:36:47.463Z,4832.00
2023-04-19T09:38:48.501Z,4840.00
2023-04-19T09:39:47.481Z,4840.00
2023-04-19T09:40:47.688Z,4848.00
2023-04-19T09:41:47.516Z,4852.00
2023-04-19T09:43:00.722Z,4864.00
2023-04-19T09:45:20.882Z,4872.00
2023-04-19T09:45:49.485Z,4880.00
2023-04-19T09:46:47.495Z,4880.00
2023-04-19T09:47:47.506Z,4892.00
2023-04-19T09:48:47.494Z,4896.00
2023-04-19T09:49:49.444Z,4900.00
2023-04-19T09:50:55.947Z,4900.00
2023-04-19T09:51:49.350Z,4912.00
2023-04-19T09:52:47.328Z,4924.00
2023-04-19T09:53:47.322Z,4920.00
2023-04-19T09:54:47.402Z,4928.00
2023-04-19T09:55:59.647Z,4936.00
2023-04-19T09:56:48.460Z,4952.00
2023-04-19T09:57:47.277Z,4952.00
2023-04-19T09:58:53.138Z,4956.00
2023-04-19T09:59:49.420Z,4952.00
2023-04-19T10:00:49.018Z,4964.00
2023-04-19T10:01:48.367Z,4964.00
2023-04-19T10:02:48.704Z,4976.00
2023-04-19T10:03:47.680Z,5000.00
2023-04-19T10:05:03.248Z,5004.00
2023-04-19T10:05:49.370Z,5000.00
2023-04-19T10:07:49.216Z,5020.00
2023-04-19T10:08:47.246Z,5008.00
2023-04-19T10:09:53.020Z,5020.00
2023-04-19T10:10:49.166Z,5036.00
2023-04-19T10:11:48.530Z,5052.00
2023-04-19T10:13:11.060Z,5060.00
2023-04-19T10:13:49.122Z,5060.00
2023-04-19T10:14:47.144Z,5080.00
2023-04-19T10:15:52.470Z,5068.00
2023-04-19T10:16:49.140Z,5096.00
2023-04-19T10:17:47.246Z,5100.00
2023-04-19T10:18:47.163Z,5100.00
2023-04-19T10:19:47.126Z,5116.00
2023-04-19T10:20:47.144Z,5116.00
2023-04-19T10:21:47.144Z,5120.00
2023-04-19T10:22:46.992Z,5140.00
2023-04-19T10:23:47.141Z,5140.00
2023-04-19T10:24:48.297Z,5156.00
2023-04-19T10:25:47.037Z,5160.00
2023-04-19T10:26:47.851Z,5176.00
2023-04-19T10:27:46.997Z,5192.00
2023-04-19T10:28:46.987Z,5208.00
2023-04-19T10:29:46.972Z,5220.00
2023-04-19T10:30:46.972Z,5212.00
2023-04-19T10:31:47.524Z,5236.00
2023-04-19T10:32:47.041Z,5264.00
2023-04-19T10:33:47.514Z,5284.00
2023-04-19T10:34:46.947Z,5280.00
2023-04-19T10:35:47.041Z,5260.00
2023-04-19T10:36:46.923Z,5260.00
2023-04-19T10:37:46.865Z,5260.00
2023-04-19T10:38:47.049Z,5268.00
2023-04-19T10:39:46.849Z,5276.00
2023-04-19T10:40:46.891Z,5284.00
2023-04-19T10:41:46.804Z,5296.00
2023-04-19T10:42:46.973Z,5288.00
2023-04-19T10:43:46.857Z,5304.00
2023-04-19T10:44:46.814Z,5304.00
2023-04-19T10:45:46.787Z,5324.00
2023-04-19T10:46:46.848Z,5332.00
2023-04-19T10:47:46.851Z,5336.00
2023-04-19T10:48:46.805Z,5348.00
2023-04-19T10:49:46.925Z,5368.00
2023-04-19T10:50:46.778Z,5372.00
2023-04-19T10:51:46.881Z,5392.00
2023-04-19T10:52:46.737Z,5404.00
2023-04-19T10:53:46.915Z,5424.00
2023-04-19T10:54:46.996Z,5432.00
2023-04-19T10:55:46.723Z,5448.00
2023-04-19T10:56:46.828Z,5448.00
2023-04-19T10:57:46.682Z,5456.00
2023-04-19T10:58:48.478Z,5468.00
2023-04-19T10:59:46.771Z,5480.00
2023-04-19T11:00:46.633Z,5492.00
2023-04-19T11:01:46.963Z,5504.00
2023-04-19T11:02:46.845Z,5520.00
2023-04-19T11:03:46.975Z,5536.00
2023-04-19T11:04:46.658Z,5532.00
2023-04-19T11:05:47.352Z,5528.00
2023-04-19T11:06:46.635Z,5540.00
2023-04-19T11:07:46.586Z,5564.00
2023-04-19T11:08:46.637Z,5572.00
2023-04-19T11:09:46.595Z,5572.00
2023-04-19T11:10:46.679Z,5568.00
2023-04-19T11:11:46.538Z,5600.00
2023-04-19T11:12:46.565Z,5588.00
2023-04-19T11:13:46.517Z,5600.00
2023-04-19T11:14:46.588Z,5592.00
2023-04-19T11:15:46.522Z,5600.00
2023-04-19T11:16:46.672Z,5616.00
2023-04-19T11:17:46.555Z,5632.00
2023-04-19T11:18:46.552Z,5628.00
2023-04-19T11:19:47.316Z,5636.00
2023-04-19T11:20:46.463Z,5636.00
2023-04-19T11:21:46.454Z,5652.00
2023-04-19T11:22:46.507Z,5660.00
2023-04-19T11:23:46.499Z,5664.00
2023-04-19T11:24:47.383Z,5668.00
2023-04-19T11:25:46.472Z,5680.00
2023-04-19T11:26:46.439Z,5684.00
2023-04-19T11:27:46.515Z,5692.00
2023-04-19T11:28:46.346Z,5696.00
2023-04-19T11:29:46.384Z,5688.00
2023-04-19T11:30:46.448Z,5704.00
2023-04-19T11:31:47.119Z,5728.00
2023-04-19T11:32:46.321Z,5724.00
2023-04-19T11:33:46.413Z,5736.00
2023-04-19T11:34:46.374Z,5732.00
2023-04-19T11:35:46.511Z,5724.00
2023-04-19T11:36:46.267Z,5716.00
2023-04-19T11:37:46.259Z,5720.00
2023-04-19T11:38:46.270Z,5736.00
2023-04-19T11:39:46.301Z,5748.00
2023-04-19T11:40:46.237Z,5740.00
2023-04-19T11:41:46.306Z,5764.00
2023-04-19T11:46:29.059Z,5792.00
2023-04-19T11:47:24.973Z,5788.00
2023-04-19T11:48:24.940Z,5808.00
2023-04-19T11:49:24.996Z,5804.00
2023-04-19T11:50:24.936Z,5836.00
2023-04-19T11:51:26.283Z,5852.00
2023-04-19T11:52:26.184Z,5860.00
2023-04-19T11:53:26.087Z,5852.00
2023-04-19T11:54:26.060Z,5852.00
2023-04-19T11:55:26.075Z,5868.00
2023-04-19T11:56:26.028Z,5896.00
2023-04-19T11:57:26.095Z,5920.00
2023-04-19T11:58:26.122Z,5924.00
2023-04-19T11:59:27.173Z,5908.00
2023-04-19T12:00:26.040Z,5892.00
2023-04-19T12:01:26.028Z,5936.00
2023-04-19T12:02:26.183Z,5952.00
2023-04-19T12:03:26.698Z,5956.00
2023-04-19T12:04:27.155Z,5952.00
2023-04-19T12:05:26.329Z,5992.00
2023-04-19T12:06:26.017Z,6000.00
2023-04-19T12:07:26.101Z,6032.00
2023-04-19T12:08:26.130Z,6080.00
2023-04-19T12:09:26.004Z,6068.00
2023-04-19T12:10:26.052Z,6044.00
2023-04-19T12:11:25.977Z,6012.00
2023-04-19T12:12:25.918Z,5976.00
2023-04-19T12:13:25.923Z,5960.00
2023-04-19T12:14:25.914Z,5984.00
2023-04-19T12:15:27.558Z,6016.00
2023-04-19T12:16:26.881Z,6048.00
2023-04-19T12:17:25.871Z,6068.00
2023-04-19T12:18:25.929Z,6068.00
2023-04-19T12:19:25.882Z,6084.00
2023-04-19T12:20:25.867Z,6060.00
2023-04-19T12:21:25.895Z,6048.00
2023-04-19T12:22:25.894Z,6056.00
2023-04-19T12:23:25.829Z,6092.00
2023-04-19T12:24:26.014Z,6064.00
2023-04-19T12:25:25.907Z,6060.00
2023-04-19T12:26:25.775Z,6072.00
2023-04-19T12:27:26.316Z,6056.00
2023-04-19T12:28:25.764Z,6060.00
2023-04-19T12:29:25.829Z,6080.00
2023-04-19T12:30:25.724Z,6108.00
2023-04-19T12:31:25.848Z,6124.00
2023-04-19T12:32:25.736Z,6116.00
2023-04-19T12:33:25.668Z,6112.00
2023-04-19T12:34:25.737Z,6120.00
2023-04-19T12:35:25.715Z,6120.00
2023-04-19T12:36:25.812Z,6152.00
2023-04-19T12:37:25.627Z,6160.00
2023-04-19T12:38:25.692Z,6196.00
2023-04-19T12:39:25.630Z,6208.00
2023-04-19T12:40:25.645Z,6188.00
2023-04-19T12:41:25.620Z,6188.00
2023-04-19T12:42:25.635Z,6188.00
2023-04-19T12:43:26.396Z,6196.00
2023-04-19T12:44:25.617Z,6200.00
2023-04-19T12:45:25.620Z,6220.00
2023-04-19T12:46:25.611Z,6240.00
2023-04-19T12:47:25.630Z,6236.00
2023-04-19T12:48:25.582Z,6260.00
2023-04-19T12:49:25.611Z,6272.00
2023-04-19T12:50:25.543Z,6232.00
2023-04-19T12:51:25.644Z,6236.00
2023-04-19T12:52:25.623Z,6220.00
2023-04-19T12:53:25.445Z,6236.00
2023-04-19T12:54:25.639Z,6240.00
2023-04-19T12:55:25.512Z,6264.00
2023-04-19T12:56:25.410Z,6308.00
2023-04-19T12:57:25.418Z,6340.00
2023-04-19T12:58:25.442Z,6304.00
2023-04-19T12:59:25.537Z,6368.00
2023-04-19T13:00:25.448Z,6452.00
2023-04-19T13:01:25.507Z,6528.00
2023-04-19T13:02:25.566Z,6612.00
2023-04-19T13:03:25.515Z,6668.00